Time;durP1;ratioP1;P1;durP2;ratioP2;P2;SDS_P1;SDS_P2;PMS_P1;PMS_P2;Temp;Humidity;BMP_temperature;BMP_pressure;BME280_temperature;BME280_humidity;BME280_pressure;Samples;Min_cycle;Max_cycle;Signal;HPM_P1;HPM_P2
2022/02/19 00:01:47;;;;;;;10.18;2.25;;;;;;;-139.48;100.00;61774.03;5021772;28;20171;-78
2022/02/19 00:04:31;;;;;;;;;;;;;;;-139.48;100.00;61774.03;5022238;28;20102;-78
2022/02/19 00:07:15;;;;;;;7.78;1.90;;;;;;;-139.48;100.00;61774.03;5021631;28;19920;-78
2022/02/19 00:09:59;;;;;;;13.63;2.53;;;;;;;-139.48;100.00;61774.03;5021974;28;20505;-77
2022/02/19 00:12:43;;;;;;;11.55;2.20;;;;;;;-139.48;100.00;61774.03;5036821;28;20528;-78
2022/02/19 00:15:27;;;;;;;;;;;;;;;-139.48;100.00;61774.03;5023284;28;20067;-76
2022/02/19 00:18:11;;;;;;;12.68;2.70;;;;;;;-139.48;100.00;61774.03;5019142;28;20383;-76
2022/02/19 00:20:56;;;;;;;14.35;2.50;;;;;;;-139.48;100.00;61774.03;5033823;28;20139;-76
2022/02/19 00:23:40;;;;;;;15.18;2.88;;;;;;;-139.48;100.00;61774.03;5018999;28;20056;-76
2022/02/19 00:26:24;;;;;;;12.65;3.35;;;;;;;-139.48;100.00;61774.03;5033733;28;20098;-76
2022/02/19 00:29:09;;;;;;;17.70;3.33;;;;;;;-139.48;100.00;61774.03;5019222;28;20132;-76
2022/02/19 00:31:53;;;;;;;9.15;2.47;;;;;;;-139.48;100.00;61774.03;5033797;28;20041;-76
2022/02/19 00:34:37;;;;;;;11.43;2.83;;;;;;;-139.48;100.00;61774.03;5018790;28;20350;-75
2022/02/19 00:37:21;;;;;;;10.25;2.42;;;;;;;-139.48;100.00;61774.03;5018859;28;20103;-76
2022/02/19 00:40:05;;;;;;;5.38;1.77;;;;;;;-139.48;100.00;61774.03;5018613;28;20047;-76
2022/02/19 00:42:49;;;;;;;7.88;1.90;;;;;;;-139.48;100.00;61774.03;5033720;28;20047;-76
2022/02/19 00:45:33;;;;;;;6.70;2.08;;;;;;;-139.48;100.00;61774.03;5018426;28;20547;-76
2022/02/19 00:48:17;;;;;;;11.38;2.15;;;;;;;-139.48;100.00;61774.03;5004505;28;20099;-76
2022/02/19 00:51:02;;;;;;;12.15;2.10;;;;;;;-139.48;100.00;61774.03;5018612;28;20373;-76
2022/02/19 00:53:46;;;;;;;10.00;2.55;;;;;;;-139.48;100.00;61774.03;5033330;28;20067;-76
2022/02/19 00:56:30;;;;;;;11.80;2.25;;;;;;;-139.48;100.00;61774.03;5018440;28;20180;-76
2022/02/19 00:59:14;;;;;;;10.38;2.08;;;;;;;-139.48;100.00;61774.03;5033166;28;20142;-76
2022/02/19 01:01:57;;;;;;;9.13;2.58;;;;;;;-139.48;100.00;61774.03;5033537;28;20052;-76
2022/02/19 01:04:41;;;;;;;9.07;2.05;;;;;;;-139.48;100.00;61774.03;5033521;28;20068;-76
2022/02/19 01:07:25;;;;;;;6.20;1.92;;;;;;;-139.48;100.00;61774.03;5018217;28;20071;-76
2022/02/19 01:10:09;;;;;;;8.85;2.28;;;;;;;-139.48;100.00;61774.03;5018157;28;20052;-76
2022/02/19 01:12:53;;;;;;;11.73;2.55;;;;;;;-139.48;100.00;61774.03;5018243;28;20091;-76
2022/02/19 01:15:37;;;;;;;10.85;2.17;;;;;;;-139.48;100.00;61774.03;5033242;28;20055;-76
2022/02/19 01:18:21;;;;;;;15.07;2.63;;;;;;;-139.48;100.00;61774.03;5033177;28;20159;-76
2022/02/19 01:21:04;;;;;;;10.00;2.15;;;;;;;-139.48;100.00;61774.03;5033097;28;20466;-75
2022/02/19 01:23:48;;;;;;;13.05;2.20;;;;;;;-139.48;100.00;61774.03;5033265;28;20129;-76
2022/02/19 01:26:33;;;;;;;9.43;2.13;;;;;;;-139.48;100.00;61774.03;5032842;28;20464;-76
2022/02/19 01:29:17;;;;;;;11.65;1.80;;;;;;;-139.48;100.00;61774.03;5004337;28;20140;-76
2022/02/19 01:32:01;;;;;;;7.05;1.92;;;;;;;-139.48;100.00;61774.03;5017699;28;20132;-76
2022/02/19 01:34:45;;;;;;;10.20;2.22;;;;;;;-139.48;100.00;61774.03;5032579;28;20068;-76
2022/02/19 01:37:29;;;;;;;14.20;2.03;;;;;;;-139.48;100.00;61774.03;5004019;28;20175;-75
2022/02/19 01:40:12;;;;;;;9.43;2.38;;;;;;;-139.48;100.00;61774.03;5017625;28;20098;-76
2022/02/19 01:42:56;;;;;;;10.27;2.08;;;;;;;-139.48;100.00;61774.03;5032775;28;20100;-76
2022/02/19 01:45:40;;;;;;;13.88;2.15;;;;;;;-139.48;100.00;61774.03;5032829;28;20083;-76
2022/02/19 01:48:24;;;;;;;12.50;2.42;;;;;;;-139.48;100.00;61774.03;5032535;28;20103;-76
2022/02/19 01:51:08;;;;;;;7.07;1.92;;;;;;;-139.48;100.00;61774.03;5018922;28;20056;-76
2022/02/19 01:53:52;;;;;;;11.52;2.05;;;;;;;-139.48;100.00;61774.03;5007994;28;20448;-76
2022/02/19 01:56:36;;;;;;;12.20;2.75;;;;;;;-139.48;100.00;61774.03;5036966;28;20413;-75
2022/02/19 01:59:20;;;;;;;7.78;2.20;;;;;;;-139.48;100.00;61774.03;5007822;28;20052;-76
2022/02/19 02:02:04;;;;;;;8.55;3.05;;;;;;;-139.48;100.00;61774.03;5021487;28;20450;-75
2022/02/19 02:04:48;;;;;;;8.10;2.30;;;;;;;-139.48;100.00;61774.03;5036558;28;20531;-76
2022/02/19 02:07:32;;;;;;;9.38;2.30;;;;;;;-139.48;100.00;61774.03;5036827;28;20052;-75
2022/02/19 02:10:16;;;;;;;;;;;;;;;-139.48;100.00;61774.03;5036566;28;20107;-76
2022/02/19 02:13:04;;;;;;;12.07;2.10;;;;;;;-139.48;100.00;61774.03;5036553;28;20380;-76
2022/02/19 02:15:51;;;;;;;12.80;2.58;;;;;;;-139.48;100.00;61774.03;5036084;28;20091;-76
2022/02/19 02:18:36;;;;;;;11.18;2.10;;;;;;;-139.48;100.00;61774.03;5036348;28;20056;-76
2022/02/19 02:21:22;;;;;;;13.68;2.28;;;;;;;-139.48;100.00;61774.03;5036412;28;20558;-75
2022/02/19 02:24:06;;;;;;;11.43;2.95;;;;;;;-139.48;100.00;61774.03;5035971;28;20052;-76
2022/02/19 02:26:51;;;;;;;12.40;2.22;;;;;;;-139.48;100.00;61774.03;5007299;28;20052;-76
2022/02/19 02:29:46;;;;;;;16.15;2.97;;;;;;;-139.48;100.00;61774.03;5021038;28;20414;-75
2022/02/19 02:32:30;;;;;;;11.60;2.20;;;;;;;-139.48;100.00;61774.03;5021035;28;20104;-76
2022/02/19 02:35:15;;;;;;;8.98;2.30;;;;;;;-139.48;100.00;61774.03;5035755;28;20056;-76
2022/02/19 02:37:58;;;;;;;11.50;2.63;;;;;;;-139.48;100.00;61774.03;5035812;28;20047;-75
2022/02/19 02:40:43;;;;;;;13.50;2.92;;;;;;;-139.48;100.00;61774.03;5021012;28;20107;-75
2022/02/19 02:43:27;;;;;;;13.07;2.47;;;;;;;-139.48;100.00;61774.03;5007174;28;20076;-75
2022/02/19 02:46:11;;;;;;;;;;;;;;;-139.48;100.00;61774.03;5021106;28;20464;-76
2022/02/19 02:48:55;;;;;;;12.93;2.58;;;;;;;-139.48;100.00;61774.03;5036064;28;19919;-75
2022/02/19 02:51:39;;;;;;;9.77;2.40;;;;;;;-139.48;100.00;61774.03;5006854;28;20107;-75
2022/02/19 02:54:23;;;;;;;13.70;3.38;;;;;;;-139.48;100.00;61774.03;5035420;28;20088;-76
2022/02/19 02:57:07;;;;;;;12.27;2.78;;;;;;;-139.48;100.00;61774.03;5035441;28;20416;-76
2022/02/19 02:59:51;;;;;;;14.73;3.00;;;;;;;-139.48;100.00;61774.03;5006997;28;20048;-75
2022/02/19 03:02:37;;;;;;;8.23;1.98;;;;;;;-139.48;100.00;61774.03;5018914;28;20519;-76
2022/02/19 03:05:21;;;;;;;9.90;2.20;;;;;;;-139.48;100.00;61774.03;5035242;28;20468;-75
2022/02/19 03:08:05;;;;;;;7.70;2.00;;;;;;;-139.48;100.00;61774.03;5020407;28;20080;-75
2022/02/19 03:10:49;;;;;;;11.07;2.10;;;;;;;-139.48;100.00;61774.03;5006440;28;20067;-75
2022/02/19 03:13:33;;;;;;;13.50;2.03;;;;;;;-139.48;100.00;61774.03;5020383;28;20500;-76
2022/02/19 03:16:17;;;;;;;7.10;2.17;;;;;;;-139.48;100.00;61774.03;5020203;28;20048;-75
2022/02/19 03:19:01;;;;;;;11.93;2.55;;;;;;;-139.48;100.00;61774.03;5035301;28;20045;-75
2022/02/19 03:21:44;;;;;;;11.38;2.22;;;;;;;-139.48;100.00;61774.03;5019970;28;20068;-75
2022/02/19 03:24:28;;;;;;;6.55;2.38;;;;;;;-139.48;100.00;61774.03;5020106;28;20178;-76
2022/02/19 03:27:12;;;;;;;13.65;2.30;;;;;;;-139.48;100.00;61774.03;5035127;28;20068;-75
2022/02/19 03:29:56;;;;;;;13.10;2.58;;;;;;;-139.48;100.00;61774.03;5034907;28;20052;-75
2022/02/19 03:32:40;;;;;;;15.52;2.10;;;;;;;-139.48;100.00;61774.03;5019805;28;20083;-75
2022/02/19 03:35:24;;;;;;;10.60;2.13;;;;;;;-139.48;100.00;61774.03;5019684;28;20080;-75
2022/02/19 03:38:08;;;;;;;8.52;2.05;;;;;;;-139.48;100.00;61774.03;5019895;28;20127;-74
2022/02/19 03:40:52;;;;;;;11.23;2.15;;;;;;;-139.48;100.00;61774.03;5034595;28;20409;-75
2022/02/19 03:43:35;;;;;;;12.75;2.42;;;;;;;-139.48;100.00;61774.03;5019805;28;20053;-75
2022/02/19 03:46:19;;;;;;;14.48;2.22;;;;;;;-139.48;100.00;61774.03;5034876;28;20060;-75
2022/02/19 03:49:04;;;;;;;8.13;2.30;;;;;;;-139.48;100.00;61774.03;5005762;28;20421;-75
2022/02/19 03:51:48;;;;;;;7.85;2.20;;;;;;;-139.48;100.00;61774.03;5034618;28;20092;-75
2022/02/19 03:54:32;;;;;;;15.68;2.40;;;;;;;-139.48;100.00;61774.03;5019280;28;20095;-75
2022/02/19 03:57:16;;;;;;;13.35;1.83;;;;;;;-139.48;100.00;61774.03;5019602;28;20049;-75
2022/02/19 04:00:00;;;;;;;7.82;1.83;;;;;;;-139.48;100.00;61774.03;5019502;28;20048;-75
2022/02/19 04:02:44;;;;;;;4.53;1.77;;;;;;;-139.48;100.00;61774.03;5005902;28;20107;-75
2022/02/19 04:05:28;;;;;;;9.45;1.75;;;;;;;-139.48;100.00;61774.03;5019044;28;20092;-75
2022/02/19 04:08:12;;;;;;;16.02;2.45;;;;;;;-139.48;100.00;61774.03;5019290;28;20048;-75
2022/02/19 04:10:56;;;;;;;9.02;1.77;;;;;;;-139.48;100.00;61774.03;5034245;28;20143;-75
2022/02/19 04:13:40;;;;;;;10.00;2.30;;;;;;;-139.48;100.00;61774.03;5033799;28;20052;-75
2022/02/19 04:16:24;;;;;;;12.90;2.20;;;;;;;-139.48;100.00;61774.03;5018907;28;20056;-75
2022/02/19 04:19:08;;;;;;;8.30;2.72;;;;;;;-139.48;100.00;61774.03;5033881;28;20132;-75
2022/02/19 04:21:51;;;;;;;11.70;1.95;;;;;;;-139.48;100.00;61774.03;5018816;28;20048;-75
2022/02/19 04:24:35;;;;;;;13.70;2.45;;;;;;;-139.48;100.00;61774.03;5018808;28;20492;-75
2022/02/19 04:27:20;;;;;;;8.77;1.95;;;;;;;-139.48;100.00;61774.03;5033953;28;20048;-75
2022/02/19 04:30:05;;;;;;;10.70;2.20;;;;;;;-139.48;100.00;61774.03;5034052;28;20114;-75
2022/02/19 04:32:49;;;;;;;10.05;1.92;;;;;;;-139.48;100.00;61774.03;5005202;28;20056;-75
2022/02/19 04:35:34;;;;;;;9.93;1.77;;;;;;;-139.48;100.00;61774.03;5018777;28;20462;-75
2022/02/19 04:38:21;;;;;;;11.43;2.28;;;;;;;-139.48;100.00;61774.03;5004940;28;20051;-76
2022/02/19 04:41:06;;;;;;;9.93;2.10;;;;;;;-139.48;100.00;61774.03;5005665;28;20057;-75
2022/02/19 04:43:49;;;;;;;10.90;1.73;;;;;;;-139.48;100.00;61774.03;5018658;28;20061;-75
2022/02/19 04:46:33;;;;;;;7.60;2.08;;;;;;;-139.48;100.00;61774.03;5033597;28;20091;-75
2022/02/19 04:49:17;;;;;;;5.93;1.35;;;;;;;-139.48;100.00;61774.03;5018348;28;20135;-75
2022/02/19 04:52:01;;;;;;;8.10;2.30;;;;;;;-139.48;100.00;61774.03;5018573;28;20040;-75
2022/02/19 04:54:45;;;;;;;8.32;2.45;;;;;;;-139.48;100.00;61774.03;5018506;28;20053;-75
2022/02/19 04:57:29;;;;;;;6.97;1.90;;;;;;;-139.48;100.00;61774.03;5033177;28;20585;-75
2022/02/19 05:00:16;;;;;;;9.13;2.00;;;;;;;-139.48;100.00;61774.03;5018479;28;20179;-75
2022/02/19 05:03:00;;;;;;;11.05;3.17;;;;;;;-139.48;100.00;61774.03;5004755;28;20052;-75
2022/02/19 05:05:44;;;;;;;10.77;2.40;;;;;;;-139.48;100.00;61774.03;5018161;28;20528;-75
2022/02/19 05:08:28;;;;;;;9.30;2.20;;;;;;;-139.48;100.00;61774.03;5018295;28;20072;-75
2022/02/19 05:11:12;;;;;;;14.65;2.30;;;;;;;-139.48;100.00;61774.03;5018243;28;20140;-75
2022/02/19 05:13:56;;;;;;;9.63;3.10;;;;;;;-139.48;100.00;61774.03;5033190;28;20052;-75
2022/02/19 05:16:40;;;;;;;7.53;2.35;;;;;;;-139.48;100.00;61774.03;5032895;28;20064;-75
2022/02/19 05:19:23;;;;;;;9.15;1.98;;;;;;;-139.48;100.00;61774.03;5017919;28;20183;-75
2022/02/19 05:22:08;;;;;;;9.65;2.03;;;;;;;-139.48;100.00;61774.03;5033088;28;20048;-75
2022/02/19 05:24:52;;;;;;;9.30;1.90;;;;;;;-139.48;100.00;61774.03;5017611;28;20129;-75
2022/02/19 05:27:36;;;;;;;12.23;2.55;;;;;;;-139.48;100.00;61774.03;5032726;28;20524;-75
2022/02/19 05:30:20;;;;;;;11.23;1.88;;;;;;;-139.48;100.00;61774.03;5017654;28;20485;-75
2022/02/19 05:33:04;;;;;;;8.10;2.30;;;;;;;-139.48;100.00;61774.03;5017780;28;20045;-75
2022/02/19 05:35:48;;;;;;;16.48;2.75;;;;;;;-139.48;100.00;61774.03;5018119;28;20047;-74
2022/02/19 05:38:32;;;;;;;7.97;2.03;;;;;;;-139.48;100.00;61774.03;5032641;28;20120;-75
2022/02/19 05:41:16;;;;;;;11.55;2.47;;;;;;;-139.48;100.00;61774.03;5017851;28;20081;-75
2022/02/19 05:44:04;;;;;;;12.65;2.92;;;;;;;-139.48;100.00;61774.03;5017861;28;20468;-75
2022/02/19 05:46:48;;;;;;;10.20;2.20;;;;;;;-139.48;100.00;61774.03;5018317;28;20079;-75
2022/02/19 05:49:32;;;;;;;;;;;;;;;-139.48;100.00;61774.03;5017974;28;20176;-75
2022/02/19 05:52:17;;;;;;;7.97;2.13;;;;;;;-139.48;100.00;61774.03;5032536;28;19999;-75
2022/02/19 05:55:01;;;;;;;11.20;2.35;;;;;;;-139.48;100.00;61774.03;5003573;28;20472;-75
2022/02/19 05:57:47;;;;;;;10.30;2.35;;;;;;;-139.48;100.00;61774.03;5017932;28;20358;-75
2022/02/19 06:00:31;;;;;;;11.93;1.67;;;;;;;-139.48;100.00;61774.03;5032423;28;20390;-75
2022/02/19 06:03:16;;;;;;;9.77;2.05;;;;;;;-139.48;100.00;61774.03;5017432;28;20187;-75
2022/02/19 06:05:59;;;;;;;7.63;2.45;;;;;;;-139.48;100.00;61774.03;5017363;28;20083;-75
2022/02/19 06:08:43;;;;;;;8.82;2.08;;;;;;;-139.48;100.00;61774.03;5032505;28;20052;-75
2022/02/19 06:11:27;;;;;;;9.73;2.00;;;;;;;-139.48;100.00;61774.03;5032523;28;20137;-75
2022/02/19 06:14:11;;;;;;;7.47;2.13;;;;;;;-139.48;100.00;61774.03;5017510;28;20107;-75
2022/02/19 06:16:55;;;;;;;16.27;2.45;;;;;;;-139.48;100.00;61774.03;5032341;28;20051;-75
2022/02/19 06:19:39;;;;;;;8.85;1.85;;;;;;;-139.48;100.00;61774.03;5017769;28;20072;-75
2022/02/19 06:22:23;;;;;;;17.95;2.30;;;;;;;-139.48;100.00;61774.03;5003582;28;20517;-75
2022/02/19 06:25:07;;;;;;;11.55;1.88;;;;;;;-139.48;100.00;61774.03;5017163;28;20471;-75
2022/02/19 06:27:51;;;;;;;10.13;2.25;;;;;;;-139.48;100.00;61774.03;5032416;28;20053;-75
2022/02/19 06:30:35;;;;;;;16.98;2.70;;;;;;;-139.48;100.00;61774.03;5033921;28;20060;-75
2022/02/19 06:33:19;;;;;;;11.60;2.22;;;;;;;-139.48;100.00;61774.03;5017358;28;20079;-73
2022/02/19 06:36:03;;;;;;;6.38;1.90;;;;;;;-139.48;100.00;61774.03;5032068;28;20075;-75
2022/02/19 06:38:48;;;;;;;9.60;2.47;;;;;;;-139.48;100.00;61774.03;5020978;28;20052;-75
2022/02/19 06:41:32;;;;;;;7.50;1.85;;;;;;;-139.48;100.00;61774.03;5035978;28;20095;-75
2022/02/19 06:44:16;;;;;;;11.30;2.33;;;;;;;-139.48;100.00;61774.03;5035716;28;20107;-75
2022/02/19 06:47:00;;;;;;;8.55;2.08;;;;;;;-139.48;100.00;61774.03;5035704;28;20075;-75
2022/02/19 06:49:43;;;;;;;;;;;;;;;-139.48;100.00;61774.03;5020999;28;20060;-75
2022/02/19 06:52:27;;;;;;;13.07;1.67;;;;;;;-139.48;100.00;61774.03;5020767;28;20352;-75
2022/02/19 06:55:11;;;;;;;15.68;2.63;;;;;;;-139.48;100.00;61774.03;5006619;28;20052;-75
2022/02/19 06:57:55;;;;;;;6.05;1.98;;;;;;;-139.48;100.00;61774.03;5035473;28;20091;-75
2022/02/19 07:00:39;;;;;;;12.15;2.28;;;;;;;-139.48;100.00;61774.03;5020454;28;20068;-75
2022/02/19 07:03:24;;;;;;;8.95;1.85;;;;;;;-139.48;100.00;61774.03;5035595;28;20084;-75
2022/02/19 07:06:08;;;;;;;8.57;1.98;;;;;;;-139.48;100.00;61774.03;5035260;28;20152;-75
2022/02/19 07:08:52;;;;;;;10.30;1.90;;;;;;;-139.48;100.00;61774.03;5035623;28;20048;-75
2022/02/19 07:11:37;;;;;;;15.90;2.47;;;;;;;-139.48;100.00;61774.03;5020397;28;20060;-75
2022/02/19 07:14:22;;;;;;;6.15;1.83;;;;;;;-139.48;100.00;61774.03;5035573;28;20099;-75
2022/02/19 07:17:06;;;;;;;8.23;2.33;;;;;;;-139.48;100.00;61774.03;5035298;28;20052;-76
2022/02/19 07:19:50;;;;;;;8.85;1.85;;;;;;;-139.48;100.00;61774.03;5035255;28;20103;-75
2022/02/19 07:22:34;;;;;;;;;;;;;;;-139.48;100.00;61774.03;5020654;28;20171;-75
2022/02/19 07:25:19;;;;;;;11.02;2.33;;;;;;;-139.48;100.00;61774.03;5006193;28;19920;-75
2022/02/19 07:28:04;;;;;;;5.07;1.73;;;;;;;-139.48;100.00;61774.03;5020032;28;20060;-75
2022/02/19 07:30:48;;;;;;;7.38;1.83;;;;;;;-139.48;100.00;61774.03;5034793;28;20048;-76
2022/02/19 07:33:32;;;;;;;7.60;2.13;;;;;;;-139.48;100.00;61774.03;5035074;28;20092;-75
2022/02/19 07:36:15;;;;;;;;;;;;;;;-139.48;100.00;61774.03;5035150;28;20099;-75
2022/02/19 07:38:59;;;;;;;9.83;1.87;;;;;;;-139.48;100.00;61774.03;5019710;28;19920;-75
2022/02/19 07:41:43;;;;;;;15.52;2.38;;;;;;;-139.48;100.00;61774.03;5006044;28;20060;-75
2022/02/19 07:44:27;;;;;;;10.68;2.00;;;;;;;-139.48;100.00;61774.03;5019449;28;20095;-75
2022/02/19 07:47:11;;;;;;;;;;;;;;;-139.48;100.00;61774.03;5020295;28;20048;-75
2022/02/19 07:59:04;;;;;;;12.23;2.55;;;;;;;-139.48;100.00;61774.03;5021057;28;20425;-76
2022/02/19 08:01:48;;;;;;;7.13;2.13;;;;;;;-139.48;100.00;61774.03;5033484;28;20519;-75
2022/02/19 08:04:32;;;;;;;11.10;2.05;;;;;;;-139.48;100.00;61774.03;5018171;28;20567;-75
2022/02/19 08:07:16;;;;;;;;;;;;;;;-139.48;100.00;61774.03;5005272;28;20099;-75
2022/02/19 08:10:00;;;;;;;16.20;2.47;;;;;;;-139.48;100.00;61774.03;5018451;28;19943;-76
2022/02/19 08:12:44;;;;;;;13.95;2.35;;;;;;;-139.48;100.00;61774.03;5004570;28;20056;-76
2022/02/19 08:15:28;;;;;;;9.32;2.08;;;;;;;-139.48;100.00;61774.03;5018277;28;20052;-76
2022/02/19 08:18:13;;;;;;;6.50;2.13;;;;;;;-139.48;100.00;61774.03;5018133;28;20122;-75
2022/02/19 08:20:57;;;;;;;12.93;1.75;;;;;;;-139.48;100.00;61774.03;5018446;28;20048;-76
2022/02/19 08:23:41;;;;;;;9.60;2.60;;;;;;;-139.48;100.00;61774.03;5017995;28;20111;-76
2022/02/19 08:26:26;;;;;;;7.80;2.03;;;;;;;-139.48;100.00;61774.03;5032820;28;20048;-75
2022/02/19 08:29:10;;;;;;;9.13;2.50;;;;;;;-139.48;100.00;61774.03;5033115;28;20064;-75
2022/02/19 08:31:54;;;;;;;7.57;2.20;;;;;;;-139.48;100.00;61774.03;5004105;28;20152;-76
2022/02/19 08:34:38;;;;;;;11.75;3.35;;;;;;;-139.48;100.00;61774.03;5017875;28;20136;-75
2022/02/19 08:37:22;;;;;;;16.23;2.17;;;;;;;-139.48;100.00;61774.03;5018013;28;20247;-75
2022/02/19 08:40:08;;;;;;;;;;;;;;;-139.48;100.00;61774.03;5018447;28;20044;-76
2022/02/19 08:42:52;;;;;;;10.55;2.40;;;;;;;-139.48;100.00;61774.03;5032883;28;20323;-76
2022/02/19 08:45:38;;;;;;;11.70;2.22;;;;;;;-139.48;100.00;61774.03;5017584;28;20049;-76
2022/02/19 08:48:22;;;;;;;10.07;2.10;;;;;;;-139.48;100.00;61774.03;5017734;28;20053;-77
2022/02/19 08:51:06;;;;;;;12.20;2.30;;;;;;;-139.48;100.00;61774.03;5032663;28;20103;-75
2022/02/19 08:53:50;;;;;;;11.38;3.42;;;;;;;-139.48;100.00;61774.03;5018686;28;20087;-76
2022/02/19 08:56:44;;;;;;;9.02;2.33;;;;;;;7.03;78.79;100833.63;5070753;28;20375;-75
2022/02/19 08:59:28;;;;;;;13.25;2.17;;;;;;;7.20;78.19;100827.13;5069285;28;20416;-74
2022/02/19 09:02:12;;;;;;;;;;;;;;;7.27;75.70;100839.84;5071018;28;20056;-74
2022/02/19 09:04:56;;;;;;;10.73;1.92;;;;;;;7.23;75.08;100841.03;5070030;28;20277;-75
2022/02/19 09:07:40;;;;;;;;;;;;;;;7.33;74.21;100849.16;5070446;28;20052;-74
2022/02/19 09:10:24;;;;;;;5.77;1.87;;;;;;;7.31;73.62;100835.16;5068757;28;20292;-75
2022/02/19 09:13:08;;;;;;;6.82;1.88;;;;;;;7.64;72.48;100830.94;5068952;28;20468;-75
2022/02/19 09:15:52;;;;;;;9.32;2.55;;;;;;;7.74;70.44;100834.59;5069658;28;20047;-75
2022/02/19 09:18:36;;;;;;;7.43;2.08;;;;;;;8.01;70.35;100832.53;5068729;28;20051;-75
2022/02/19 09:21:20;;;;;;;14.52;2.65;;;;;;;8.43;68.01;100839.94;5069456;28;20059;-75
2022/02/19 09:24:04;;;;;;;8.75;2.28;;;;;;;9.23;64.46;100835.34;5068632;28;20492;-75
2022/02/19 09:26:48;;;;;;;6.75;1.73;;;;;;;10.21;58.86;100835.22;5069876;28;20097;-75
2022/02/19 09:29:32;;;;;;;7.30;2.22;;;;;;;10.93;56.64;100843.97;5068225;28;20052;-76
2022/02/19 09:32:16;;;;;;;6.60;2.10;;;;;;;10.61;54.78;100837.91;5069266;28;20123;-75
2022/02/19 09:35:00;;;;;;;7.35;2.17;;;;;;;11.02;54.93;100845.00;5068009;28;20052;-76
2022/02/19 09:37:44;;;;;;;6.78;2.40;;;;;;;10.61;55.22;100872.56;5068168;28;20141;-76
2022/02/19 09:40:29;;;;;;;10.90;2.50;;;;;;;11.61;54.51;100843.28;5069354;28;20051;-75
2022/02/19 09:43:13;;;;;;;9.60;2.20;;;;;;;12.69;49.90;100847.41;5068031;28;20093;-76
2022/02/19 09:45:57;;;;;;;5.25;1.67;;;;;;;12.48;50.57;100836.03;5067685;28;20117;-76
2022/02/19 09:48:46;;;;;;;8.60;2.20;;;;;;;12.76;48.90;100834.28;5068164;28;20055;-76
2022/02/19 09:51:30;;;;;;;10.25;2.63;;;;;;;13.85;46.55;100843.13;5068003;28;20094;-76
2022/02/19 09:54:14;;;;;;;10.18;2.35;;;;;;;13.01;46.85;100850.59;5067688;28;20114;-72
2022/02/19 09:56:58;;;;;;;11.48;2.00;;;;;;;11.32;48.11;100869.88;5067914;28;20096;-76
2022/02/19 09:59:42;;;;;;;8.52;2.60;;;;;;;11.23;49.97;100872.47;5053768;28;20058;-76
2022/02/19 10:02:32;;;;;;;5.90;1.90;;;;;;;10.94;49.48;100874.19;5067563;28;20043;-75
2022/02/19 10:05:22;;;;;;;13.48;2.42;;;;;;;11.31;49.56;100868.19;5067443;28;20124;-75
2022/02/19 10:08:07;;;;;;;8.13;2.42;;;;;;;12.26;47.84;100891.63;5055399;28;20404;-76
2022/02/19 10:10:53;;;;;;;6.88;1.95;;;;;;;12.61;44.51;100884.72;5040680;28;20110;-76
2022/02/19 10:13:38;;;;;;;6.30;2.53;;;;;;;11.65;47.28;100890.94;5055225;28;20116;-76
2022/02/19 10:16:26;;;;;;;12.55;2.38;;;;;;;11.40;48.99;100880.72;5054093;28;20048;-76
2022/02/19 10:19:10;;;;;;;8.55;1.88;;;;;;;12.41;46.10;100869.66;5054175;28;20407;-76
2022/02/19 10:22:10;;;;;;;10.07;2.30;;;;;;;11.06;47.34;100899.81;5039865;28;20118;-75
2022/02/19 10:25:01;;;;;;;6.18;1.92;;;;;;;10.87;48.54;100884.50;5039680;28;20095;-75
2022/02/19 10:27:45;;;;;;;8.55;2.42;;;;;;;10.36;50.00;100882.75;5054729;28;20055;-76
2022/02/19 10:30:29;;;;;;;6.53;2.08;;;;;;;11.82;48.63;100894.78;5054014;28;20183;-76
2022/02/19 10:33:15;;;;;;;8.40;2.25;;;;;;;11.85;48.56;100884.69;5054282;28;20048;-72
2022/02/19 10:36:01;;;;;;;8.57;2.00;;;;;;;11.54;48.37;100884.81;5054793;28;20106;-73
2022/02/19 10:38:58;;;;;;;8.68;2.08;;;;;;;10.57;50.79;100888.94;5054087;28;20531;-71
2022/02/19 10:41:42;;;;;;;8.07;1.95;;;;;;;10.24;51.52;100887.28;5039436;28;20564;-72
2022/02/19 10:44:28;;;;;;;7.10;1.83;;;;;;;12.65;47.15;100907.53;5054113;28;20535;-74
2022/02/19 10:47:20;;;;;;;7.65;2.20;;;;;;;12.26;47.68;100896.97;5053567;28;20393;-75
2022/02/19 10:50:13;;;;;;;5.97;2.03;;;;;;;13.15;43.56;100903.69;5053732;28;20064;-69
2022/02/19 10:52:57;;;;;;;7.60;2.05;;;;;;;12.25;45.68;100898.81;5054413;28;20047;-75
2022/02/19 10:55:42;;;;;;;5.93;2.28;;;;;;;11.67;47.06;100898.84;5053500;28;20412;-75
2022/02/19 10:58:26;;;;;;;7.15;2.50;;;;;;;11.55;48.07;100891.84;5053764;28;20190;-74
2022/02/19 11:01:19;;;;;;;5.00;1.75;;;;;;;11.14;49.12;100895.50;5053695;28;20155;-72
2022/02/19 11:04:06;;;;;;;9.32;2.17;;;;;;;11.44;47.33;100883.94;5053459;28;20473;-77
2022/02/19 11:06:50;;;;;;;7.50;2.17;;;;;;;12.12;46.69;100897.38;5025696;28;20409;-72
2022/02/19 11:09:34;;;;;;;6.55;2.00;;;;;;;12.14;47.26;100885.56;5053399;28;20059;-73
2022/02/19 11:12:19;;;;;;;6.57;2.10;;;;;;;12.43;45.15;100913.19;5053277;28;20610;-75
2022/02/19 11:15:04;;;;;;;10.18;2.00;;;;;;;13.35;43.47;100873.16;5053151;28;20094;-72
2022/02/19 11:17:50;;;;;;;4.90;2.13;;;;;;;12.79;45.20;100882.19;5053701;28;20512;-75
2022/02/19 11:20:34;;;;;;;5.32;1.80;;;;;;;11.80;45.79;100878.88;5053113;28;20123;-74
2022/02/19 11:23:18;;;;;;;9.27;2.10;;;;;;;11.31;48.32;100881.53;5054108;28;20047;-75
2022/02/19 11:26:02;;;;;;;7.88;1.77;;;;;;;12.92;44.86;100867.47;5053426;28;20488;-74
2022/02/19 11:28:46;;;;;;;15.10;2.15;;;;;;;12.27;46.64;100880.78;5039012;28;20052;-71
2022/02/19 11:31:31;;;;;;;6.90;1.88;;;;;;;12.54;46.87;100869.38;5052767;28;20562;-75
2022/02/19 11:34:22;;;;;;;6.15;2.08;;;;;;;15.68;41.22;100850.91;5052935;28;20124;-75
2022/02/19 11:37:15;;;;;;;7.63;2.00;;;;;;;15.91;39.45;100847.44;5038640;28;20131;-76
2022/02/19 11:40:11;;;;;;;6.57;1.90;;;;;;;11.51;46.36;100866.41;5053801;28;20136;-75
2022/02/19 11:42:55;;;;;;;6.65;2.55;;;;;;;11.02;50.13;100861.88;5052453;28;20420;-75
2022/02/19 11:45:39;;;;;;;6.50;2.33;;;;;;;12.42;46.79;100846.44;5052344;28;20044;-76
2022/02/19 11:48:27;;;;;;;8.77;2.17;;;;;;;13.92;42.03;100829.97;5053429;28;20044;-76
2022/02/19 11:51:23;;;;;;;6.63;2.20;;;;;;;13.71;42.70;100821.34;5053625;28;20060;-76
2022/02/19 11:54:06;;;;;;;9.23;2.25;;;;;;;15.22;39.93;100839.75;5052505;28;20047;-76
2022/02/19 11:56:51;;;;;;;7.18;1.95;;;;;;;14.69;40.43;100828.34;5053361;28;20523;-76
2022/02/19 11:59:47;;;;;;;7.22;2.13;;;;;;;12.28;44.55;100834.34;5038411;28;20122;-76
2022/02/19 12:02:31;;;;;;;8.02;2.20;;;;;;;13.17;44.25;100827.56;5052466;28;20182;-76
2022/02/19 12:05:21;;;;;;;5.57;2.20;;;;;;;13.60;42.47;100837.66;5053109;28;20106;-76
2022/02/19 12:08:05;;;;;;;9.60;2.10;;;;;;;13.89;42.10;100808.84;5052409;28;20051;-76
2022/02/19 12:11:05;;;;;;;9.73;2.00;;;;;;;13.28;42.88;100815.81;5053295;28;20140;-77
2022/02/19 12:13:52;;;;;;;8.95;2.10;;;;;;;14.05;41.73;100815.19;5052496;28;20118;-76
2022/02/19 12:16:43;;;;;;;4.40;1.85;;;;;;;13.56;42.24;100806.81;5052921;28;20078;-76
2022/02/19 12:20:00;;;;;;;6.57;1.95;;;;;;;12.79;41.76;100807.25;5052075;28;20090;-76
2022/02/19 12:22:52;;;;;;;8.88;2.05;;;;;;;14.51;39.93;100792.66;5052150;28;20071;-75
2022/02/19 12:25:55;;;;;;;5.75;1.70;;;;;;;13.27;39.62;100809.63;5038251;28;20052;-76
2022/02/19 12:28:40;;;;;;;3.95;1.83;;;;;;;12.09;40.92;100793.44;5052756;28;20048;-76
2022/02/19 12:31:29;;;;;;;4.13;1.60;;;;;;;12.09;42.15;100796.94;5050984;22;20484;-71
2022/02/19 12:34:14;;;;;;;4.55;1.70;;;;;;;12.39;41.80;100787.94;5011998;28;20052;-72
2022/02/19 12:36:58;;;;;;;6.05;2.00;;;;;;;13.75;39.31;100772.69;5012194;28;20041;-72
2022/02/19 12:39:44;;;;;;;5.05;1.75;;;;;;;15.45;35.90;100774.56;4998524;28;20135;-72
2022/02/19 12:42:31;;;;;;;4.65;1.67;;;;;;;14.77;35.19;100783.59;4992583;28;20124;-72
2022/02/19 12:45:16;;;;;;;5.55;1.67;;;;;;;12.97;39.05;100775.09;4992451;28;20553;-72